createdAt,value
2022-07-26T00:00:50.084Z,7.78
2022-07-26T00:03:17.516Z,8.13
2022-07-26T00:05:44.776Z,7.32
2022-07-26T00:08:12.030Z,7.78
2022-07-26T00:10:46.076Z,7.13
2022-07-26T00:13:13.565Z,7.68
2022-07-26T00:15:40.968Z,6.95
2022-07-26T00:18:12.334Z,7.32
2022-07-26T00:20:40.264Z,7.50
2022-07-26T00:23:09.176Z,6.95
2022-07-26T00:25:37.216Z,7.90
2022-07-26T00:28:04.996Z,7.38
2022-07-26T00:30:33.151Z,7.22
2022-07-26T00:33:00.233Z,6.97
2022-07-26T00:35:27.478Z,6.70
2022-07-26T00:37:54.876Z,6.88
2022-07-26T00:40:22.019Z,7.47
2022-07-26T00:42:49.283Z,6.88
2022-07-26T00:45:17.555Z,6.75
2022-07-26T00:47:44.978Z,6.60
2022-07-26T00:50:16.544Z,6.35
2022-07-26T00:52:46.473Z,6.90
2022-07-26T00:55:15.057Z,6.50
2022-07-26T00:57:43.444Z,6.30
2022-07-26T01:00:14.305Z,6.65
2022-07-26T01:02:42.502Z,7.03
2022-07-26T01:05:09.857Z,6.55
2022-07-26T01:07:38.735Z,8.75
2022-07-26T01:10:09.424Z,6.85
2022-07-26T01:12:36.527Z,6.15
2022-07-26T01:15:04.189Z,6.82
2022-07-26T01:17:31.290Z,6.68
2022-07-26T01:20:02.060Z,6.55
2022-07-26T01:22:29.372Z,7.00
2022-07-26T01:24:56.522Z,6.35
2022-07-26T01:27:23.931Z,5.82
2022-07-26T01:29:51.261Z,6.55
2022-07-26T01:32:19.825Z,6.55
2022-07-26T01:34:46.881Z,6.82
2022-07-26T01:37:14.283Z,7.07
2022-07-26T01:39:41.457Z,6.28
2022-07-26T01:42:08.477Z,6.90
2022-07-26T01:44:35.869Z,6.78
2022-07-26T01:47:03.257Z,7.68
2022-07-26T01:49:30.340Z,7.25
2022-07-26T01:51:57.625Z,7.85
2022-07-26T01:54:24.851Z,9.20
2022-07-26T01:56:51.840Z,8.10
2022-07-26T01:59:19.205Z,8.23
2022-07-26T02:01:46.781Z,8.07
2022-07-26T02:04:14.301Z,8.40
2022-07-26T02:06:41.840Z,9.63
2022-07-26T02:09:13.227Z,8.20
2022-07-26T02:11:40.281Z,8.55
2022-07-26T02:14:07.834Z,9.98
2022-07-26T02:16:35.161Z,13.65
2022-07-26T02:19:02.125Z,14.18
2022-07-26T02:21:29.530Z,15.13
2022-07-26T02:23:56.677Z,15.73
2022-07-26T02:26:23.730Z,16.30
2022-07-26T02:28:51.099Z,16.85
2022-07-26T02:31:18.494Z,16.25
2022-07-26T02:33:45.532Z,16.38
2022-07-26T02:36:12.873Z,16.70
2022-07-26T02:38:39.993Z,16.10
2022-07-26T02:41:07.095Z,16.13
2022-07-26T02:43:34.363Z,16.30
2022-07-26T02:46:02.709Z,16.50
2022-07-26T02:48:31.461Z,15.65
2022-07-26T02:50:59.394Z,17.55
2022-07-26T02:53:26.553Z,17.20
2022-07-26T02:55:53.626Z,17.00
2022-07-26T02:58:20.888Z,17.98
2022-07-26T03:00:48.126Z,16.88
2022-07-26T03:03:15.210Z,17.45
2022-07-26T03:05:42.695Z,16.33
2022-07-26T03:08:09.881Z,15.43
2022-07-26T03:10:36.895Z,16.30
2022-07-26T03:13:04.302Z,14.85
2022-07-26T03:15:31.718Z,13.73
2022-07-26T03:17:58.773Z,12.70
2022-07-26T03:20:26.223Z,11.65
2022-07-26T03:22:53.453Z,11.27
2022-07-26T03:25:20.488Z,11.55
2022-07-26T03:27:47.887Z,10.05
2022-07-26T03:30:15.115Z,9.85
2022-07-26T03:32:42.185Z,9.73
2022-07-26T03:35:09.537Z,10.52
2022-07-26T03:37:45.804Z,10.15
2022-07-26T03:40:15.790Z,9.68
2022-07-26T03:42:43.814Z,8.30
2022-07-26T03:45:11.475Z,8.02
2022-07-26T03:47:38.953Z,9.15
2022-07-26T03:50:07.104Z,7.65
2022-07-26T03:52:34.698Z,7.30
2022-07-26T03:55:02.572Z,7.22
2022-07-26T03:57:29.796Z,6.68
2022-07-26T03:59:56.752Z,7.30
2022-07-26T04:02:24.075Z,7.43
2022-07-26T04:04:51.280Z,6.43
2022-07-26T04:07:18.271Z,6.80
2022-07-26T04:09:46.540Z,6.68
2022-07-26T04:12:13.643Z,6.57
2022-07-26T04:14:40.637Z,7.18
2022-07-26T04:17:09.600Z,6.75
2022-07-26T04:19:37.499Z,6.35
2022-07-26T04:22:07.031Z,6.40
2022-07-26T04:24:34.373Z,6.18
2022-07-26T04:27:01.459Z,6.00
2022-07-26T04:29:28.512Z,6.60
2022-07-26T04:31:55.853Z,5.97
2022-07-26T04:34:23.053Z,6.10
2022-07-26T04:36:50.088Z,6.18
2022-07-26T04:39:17.384Z,6.47
2022-07-26T04:41:44.503Z,6.45
2022-07-26T04:44:11.900Z,7.03
2022-07-26T04:46:39.433Z,6.80
2022-07-26T04:49:12.222Z,6.47
2022-07-26T04:51:39.575Z,6.05
2022-07-26T04:54:07.028Z,6.97
2022-07-26T04:56:34.387Z,6.20
2022-07-26T04:59:01.425Z,7.22
2022-07-26T05:01:28.652Z,6.80
2022-07-26T05:03:55.823Z,6.03
2022-07-26T05:06:22.966Z,6.18
2022-07-26T05:08:51.278Z,6.38
2022-07-26T05:11:18.489Z,6.10
2022-07-26T05:13:45.663Z,6.43
2022-07-26T05:16:12.857Z,6.47
2022-07-26T05:18:48.765Z,5.65
2022-07-26T05:21:17.969Z,6.25
2022-07-26T05:23:45.140Z,5.60
2022-07-26T05:26:12.366Z,6.05
2022-07-26T05:28:40.287Z,5.88
2022-07-26T05:31:08.166Z,5.03
2022-07-26T05:33:35.320Z,4.85
2022-07-26T05:36:02.651Z,4.57
2022-07-26T05:38:29.816Z,5.15
2022-07-26T05:40:56.785Z,4.50
2022-07-26T05:43:24.064Z,5.22
2022-07-26T05:45:51.276Z,4.47
2022-07-26T05:48:18.397Z,4.85
2022-07-26T05:50:46.958Z,5.20
2022-07-26T05:53:14.266Z,4.85
2022-07-26T05:55:41.453Z,3.85
2022-07-26T05:58:08.807Z,3.95
2022-07-26T06:00:36.085Z,4.05
2022-07-26T06:03:03.081Z,3.90
2022-07-26T06:18:34.855Z,3.60
2022-07-26T06:21:02.771Z,3.35
2022-07-26T06:23:34.220Z,3.75
2022-07-26T06:26:03.583Z,3.03
2022-07-26T06:28:31.040Z,3.22
2022-07-26T06:30:58.149Z,2.83
2022-07-26T06:33:25.352Z,3.42
2022-07-26T06:35:52.785Z,3.35
2022-07-26T06:38:19.799Z,3.72
2022-07-26T06:40:46.893Z,3.58
2022-07-26T06:43:14.166Z,3.03
2022-07-26T06:45:41.320Z,2.90
2022-07-26T06:48:08.607Z,3.58
2022-07-26T06:50:35.939Z,3.53
2022-07-26T06:53:02.914Z,3.08
2022-07-26T06:55:30.067Z,3.15
2022-07-26T06:57:58.635Z,3.08
2022-07-26T07:00:25.686Z,3.33
2022-07-26T07:02:52.828Z,3.10
2022-07-26T07:05:20.582Z,3.05
2022-07-26T07:07:47.732Z,2.90
2022-07-26T07:10:15.130Z,2.70
2022-07-26T07:12:42.434Z,2.67
2022-07-26T07:15:09.861Z,3.10
2022-07-26T07:17:37.066Z,2.85
2022-07-26T07:20:05.336Z,2.97
2022-07-26T07:22:32.703Z,2.47
2022-07-26T07:24:59.930Z,3.47
2022-07-26T07:27:27.436Z,2.97
2022-07-26T07:29:57.353Z,2.35
2022-07-26T07:32:24.924Z,2.35
2022-07-26T07:34:53.783Z,2.60
2022-07-26T07:37:21.095Z,2.63
2022-07-26T07:39:50.678Z,2.40
2022-07-26T07:42:19.197Z,2.30
2022-07-26T07:44:46.404Z,2.55
2022-07-26T07:47:13.585Z,2.53
2022-07-26T07:49:40.985Z,2.60
2022-07-26T07:52:08.162Z,2.47
2022-07-26T07:54:35.313Z,2.78
2022-07-26T07:57:02.885Z,2.97
2022-07-26T07:59:29.950Z,2.92
2022-07-26T08:01:57.250Z,2.92
2022-07-26T08:04:24.783Z,2.42
2022-07-26T08:06:51.977Z,2.40
2022-07-26T08:09:20.663Z,2.65
2022-07-26T08:11:50.745Z,2.70
2022-07-26T08:14:19.099Z,2.90
2022-07-26T08:16:46.793Z,2.40
2022-07-26T08:19:15.469Z,2.92
2022-07-26T08:21:43.260Z,2.50
2022-07-26T08:24:10.416Z,3.53
2022-07-26T08:26:38.412Z,2.72
2022-07-26T08:29:05.674Z,2.45
2022-07-26T08:31:32.844Z,2.60
2022-07-26T08:34:00.217Z,2.78
2022-07-26T08:36:32.374Z,2.70
2022-07-26T08:41:28.435Z,3.28
2022-07-26T08:43:55.658Z,2.30
2022-07-26T08:46:25.983Z,2.28
2022-07-26T08:48:56.222Z,2.40
2022-07-26T08:51:24.878Z,3.40
2022-07-26T08:54:02.253Z,3.35
2022-07-26T08:56:36.764Z,2.28
2022-07-26T08:59:19.424Z,2.90
2022-07-26T09:01:59.330Z,2.88
2022-07-26T09:04:44.385Z,2.42
2022-07-26T09:07:18.502Z,2.70
2022-07-26T09:10:00.956Z,2.97
2022-07-26T09:12:30.396Z,2.40
2022-07-26T09:14:58.688Z,1.98
2022-07-26T09:17:41.464Z,2.72
2022-07-26T09:20:16.704Z,2.75
2022-07-26T09:23:01.844Z,2.58
2022-07-26T09:25:31.897Z,2.58
2022-07-26T09:27:59.408Z,25.45
2022-07-26T09:30:28.204Z,5.50
2022-07-26T09:33:04.527Z,10.27
2022-07-26T09:35:52.525Z,11.40
2022-07-26T09:38:20.436Z,5.20
2022-07-26T09:40:50.796Z,2.85
2022-07-26T09:43:22.260Z,3.17
2022-07-26T09:46:06.265Z,2.83
2022-07-26T09:48:59.275Z,2.83
2022-07-26T09:51:42.040Z,3.00
2022-07-26T09:54:11.687Z,4.90
2022-07-26T09:56:50.381Z,3.80
2022-07-26T09:59:20.036Z,2.90
2022-07-26T10:01:49.034Z,3.70
2022-07-26T10:04:16.813Z,3.20
2022-07-26T10:06:44.163Z,3.15
2022-07-26T10:09:12.679Z,3.38
2022-07-26T10:11:49.471Z,2.90
2022-07-26T10:14:37.438Z,2.65
2022-07-26T10:17:30.897Z,3.72
2022-07-26T10:20:09.145Z,3.47
2022-07-26T10:22:45.161Z,2.90
2022-07-26T10:25:18.546Z,4.05
2022-07-26T10:27:54.828Z,3.20
2022-07-26T10:30:23.883Z,8.07
2022-07-26T10:33:00.990Z,9.70
2022-07-26T10:35:36.676Z,5.00
2022-07-26T10:38:09.385Z,4.00
2022-07-26T10:40:38.639Z,3.28
2022-07-26T10:43:40.795Z,2.80
2022-07-26T10:46:18.251Z,3.00
2022-07-26T10:48:59.454Z,3.05
2022-07-26T10:51:28.994Z,2.90
2022-07-26T10:54:07.182Z,2.90
2022-07-26T10:56:35.339Z,6.60
2022-07-26T10:59:04.288Z,2.83
2022-07-26T11:01:40.951Z,3.17
2022-07-26T11:04:21.499Z,3.85
2022-07-26T11:06:48.830Z,5.72
2022-07-26T11:09:16.208Z,5.72
2022-07-26T11:11:47.135Z,3.55
2022-07-26T11:14:17.326Z,3.10
2022-07-26T11:16:49.493Z,3.65
2022-07-26T11:19:19.871Z,3.78
2022-07-26T11:21:54.965Z,3.75
2022-07-26T11:24:22.283Z,3.28
2022-07-26T11:26:49.772Z,3.60
2022-07-26T11:29:26.597Z,3.25
2022-07-26T11:32:18.218Z,3.50
2022-07-26T11:34:46.568Z,3.78
2022-07-26T11:37:14.140Z,3.47
2022-07-26T11:39:41.143Z,3.13
2022-07-26T11:42:09.433Z,2.95
2022-07-26T11:44:37.037Z,2.90
2022-07-26T11:47:25.604Z,3.00
2022-07-26T11:50:13.886Z,2.78
2022-07-26T11:52:41.687Z,2.65
2022-07-26T11:55:09.656Z,2.63
2022-07-26T11:57:36.957Z,2.85
2022-07-26T12:00:05.352Z,3.03
2022-07-26T12:02:32.856Z,2.40
2022-07-26T12:05:21.975Z,3.22
2022-07-26T12:07:58.232Z,2.53
2022-07-26T12:10:25.947Z,2.53
2022-07-26T12:13:10.825Z,2.72
2022-07-26T12:16:04.691Z,2.70
2022-07-26T12:18:32.473Z,3.50
2022-07-26T12:21:08.634Z,2.90
2022-07-26T12:23:42.518Z,2.53
2022-07-26T12:26:26.101Z,3.08
2022-07-26T12:28:54.645Z,3.47
2022-07-26T12:31:26.610Z,2.63
2022-07-26T12:33:53.928Z,2.47
2022-07-26T12:36:27.529Z,2.85
2022-07-26T12:38:56.969Z,3.50
2022-07-26T12:41:36.056Z,3.47
2022-07-26T12:44:08.511Z,3.15
2022-07-26T12:46:36.788Z,3.00
2022-07-26T12:49:05.023Z,2.17
2022-07-26T12:51:32.249Z,2.00
2022-07-26T12:53:59.722Z,1.77
2022-07-26T12:56:26.875Z,1.80
2022-07-26T12:58:53.879Z,2.10
2022-07-26T13:01:21.586Z,2.35
2022-07-26T13:03:48.833Z,1.67
2022-07-26T13:06:16.037Z,1.50
2022-07-26T13:08:43.483Z,3.75
2022-07-26T13:11:10.655Z,1.60
2022-07-26T13:13:37.748Z,1.70
2022-07-26T13:16:09.711Z,1.65
2022-07-26T13:18:39.441Z,1.60
2022-07-26T13:21:07.091Z,1.73
2022-07-26T13:23:35.793Z,2.17
2022-07-26T13:26:04.091Z,3.42
2022-07-26T13:28:31.781Z,3.80
2022-07-26T13:30:58.941Z,1.88
2022-07-26T13:33:26.223Z,1.58
2022-07-26T13:35:53.606Z,1.50
2022-07-26T13:38:20.658Z,2.30
2022-07-26T13:40:47.681Z,3.00
2022-07-26T13:43:15.201Z,2.90
2022-07-26T13:45:42.501Z,3.30
2022-07-26T13:48:09.824Z,2.85
2022-07-26T13:50:37.213Z,3.22
2022-07-26T13:53:04.294Z,3.85
2022-07-26T13:55:31.489Z,3.45
2022-07-26T13:57:58.897Z,3.58
2022-07-26T14:00:27.480Z,3.75
2022-07-26T14:02:55.736Z,4.10
2022-07-26T14:05:23.566Z,3.80
2022-07-26T14:07:50.906Z,3.38
2022-07-26T14:10:19.017Z,3.40
2022-07-26T14:12:46.700Z,3.70
2022-07-26T14:15:19.502Z,3.55
2022-07-26T14:17:49.907Z,3.95
2022-07-26T14:20:17.193Z,3.70
2022-07-26T14:22:45.015Z,3.53
2022-07-26T14:25:12.514Z,3.38
2022-07-26T14:27:39.632Z,3.10
2022-07-26T14:30:07.388Z,2.85
2022-07-26T14:32:34.852Z,3.00
2022-07-26T14:35:01.945Z,3.33
2022-07-26T14:37:43.157Z,3.40
2022-07-26T14:40:14.891Z,4.70
2022-07-26T14:42:42.348Z,3.40
2022-07-26T14:45:10.475Z,3.45
2022-07-26T14:47:38.195Z,3.47
2022-07-26T14:50:07.688Z,3.25
2022-07-26T14:52:46.098Z,3.05
2022-07-26T14:55:15.223Z,3.95
2022-07-26T14:57:43.108Z,3.90
2022-07-26T15:00:15.392Z,3.60
2022-07-26T15:02:45.217Z,3.65
2022-07-26T15:05:14.033Z,3.33
2022-07-26T15:07:42.475Z,4.05
2022-07-26T15:10:11.990Z,2.85
2022-07-26T15:12:39.635Z,2.30
2022-07-26T15:15:07.773Z,2.17
2022-07-26T15:17:35.795Z,2.25
2022-07-26T15:20:04.047Z,1.70
2022-07-26T15:22:31.153Z,1.65
2022-07-26T15:24:58.516Z,2.10
2022-07-26T15:27:25.682Z,1.67
2022-07-26T15:29:52.704Z,1.70
2022-07-26T15:32:21.015Z,2.42
2022-07-26T15:34:48.623Z,1.85
2022-07-26T15:37:15.685Z,3.10
2022-07-26T15:39:42.961Z,3.13
2022-07-26T15:42:10.190Z,2.83
2022-07-26T15:44:38.118Z,2.83
2022-07-26T15:47:06.022Z,3.00
2022-07-26T15:49:33.580Z,3.00
2022-07-26T15:52:10.572Z,3.30
2022-07-26T15:54:38.209Z,3.45
2022-07-26T15:57:05.253Z,3.00
2022-07-26T15:59:32.912Z,4.20
2022-07-26T16:02:00.243Z,3.22
2022-07-26T16:04:27.400Z,3.03
2022-07-26T16:06:54.778Z,2.85
2022-07-26T16:09:21.929Z,3.45
2022-07-26T16:11:49.604Z,2.47
2022-07-26T16:14:17.284Z,2.78
2022-07-26T16:16:45.087Z,2.60
2022-07-26T16:19:12.659Z,2.90
2022-07-26T16:21:40.554Z,2.80
2022-07-26T16:24:08.159Z,2.67
2022-07-26T16:26:35.667Z,2.80
2022-07-26T16:29:04.721Z,2.85
2022-07-26T16:31:32.953Z,2.70
2022-07-26T16:34:00.551Z,2.78
2022-07-26T16:36:28.986Z,2.95
2022-07-26T16:38:56.118Z,6.40
2022-07-26T16:41:23.146Z,2.67
2022-07-26T16:43:50.859Z,2.20
2022-07-26T16:46:18.151Z,2.10
2022-07-26T16:48:45.418Z,1.80
2022-07-26T16:51:12.966Z,2.03
2022-07-26T16:53:40.839Z,2.10
2022-07-26T16:56:07.941Z,1.98
2022-07-26T16:58:36.598Z,2.05
2022-07-26T17:01:03.855Z,2.85
2022-07-26T17:03:30.867Z,1.95
2022-07-26T17:06:00.772Z,2.35
2022-07-26T17:08:32.058Z,2.28
2022-07-26T17:10:59.441Z,1.75
2022-07-26T17:13:26.549Z,2.92
2022-07-26T17:15:53.635Z,2.60
2022-07-26T17:18:21.081Z,2.65
2022-07-26T17:20:48.115Z,3.00
2022-07-26T17:23:15.121Z,2.92
2022-07-26T17:25:42.414Z,2.75
2022-07-26T17:28:09.426Z,2.88
2022-07-26T17:30:36.499Z,2.45
2022-07-26T17:33:04.095Z,4.00
2022-07-26T17:35:31.215Z,2.83
2022-07-26T17:37:58.295Z,2.90
2022-07-26T17:40:25.713Z,2.67
2022-07-26T17:42:53.009Z,3.00
2022-07-26T17:45:20.228Z,3.03
2022-07-26T17:47:47.708Z,3.35
2022-07-26T17:50:35.300Z,3.20
2022-07-26T17:53:02.278Z,4.05
2022-07-26T17:55:29.301Z,3.35
2022-07-26T17:57:56.355Z,3.40
2022-07-26T18:00:23.774Z,3.50
2022-07-26T18:02:55.764Z,4.13
2022-07-26T18:05:23.680Z,3.25
2022-07-26T18:07:53.723Z,3.90
2022-07-26T18:10:20.738Z,3.45
2022-07-26T18:12:47.756Z,3.90
2022-07-26T18:15:15.328Z,4.88
2022-07-26T18:17:42.340Z,3.95
2022-07-26T18:20:10.256Z,4.10
2022-07-26T18:22:38.548Z,3.78
2022-07-26T18:25:06.839Z,3.50
2022-07-26T18:27:34.558Z,4.07
2022-07-26T18:30:04.490Z,3.78
2022-07-26T18:32:31.557Z,3.80
2022-07-26T18:34:58.691Z,4.32
2022-07-26T18:37:26.351Z,3.60
2022-07-26T18:39:57.521Z,4.30
2022-07-26T18:42:25.814Z,4.53
2022-07-26T18:44:53.349Z,4.40
2022-07-26T18:47:20.396Z,4.28
2022-07-26T18:49:47.454Z,3.67
2022-07-26T18:52:14.939Z,4.50
2022-07-26T18:54:41.978Z,4.05
2022-07-26T18:57:08.998Z,4.32
2022-07-26T18:59:36.664Z,4.35
2022-07-26T19:02:07.206Z,3.25
2022-07-26T19:04:34.427Z,3.50
2022-07-26T19:07:02.121Z,4.53
2022-07-26T19:09:29.195Z,4.10
2022-07-26T19:11:56.197Z,3.17
2022-07-26T19:14:24.529Z,2.65
2022-07-26T19:16:51.502Z,2.53
2022-07-26T19:19:18.572Z,3.33
2022-07-26T19:21:46.032Z,4.25
2022-07-26T19:24:13.367Z,3.47
2022-07-26T19:26:40.381Z,2.60
2022-07-26T19:29:08.032Z,2.55
2022-07-26T19:31:35.606Z,2.95
2022-07-26T19:34:03.813Z,2.47
2022-07-26T19:36:31.265Z,2.67
2022-07-26T19:38:58.277Z,2.60
2022-07-26T19:41:25.297Z,2.40
2022-07-26T19:43:53.199Z,2.38
2022-07-26T19:46:20.380Z,2.72
2022-07-26T19:48:47.681Z,2.85
2022-07-26T19:51:15.238Z,2.45
2022-07-26T19:53:42.464Z,2.63
2022-07-26T19:56:09.456Z,2.72
2022-07-26T19:58:37.132Z,2.55
2022-07-26T20:01:04.212Z,3.55
2022-07-26T20:03:31.858Z,6.20
2022-07-26T20:05:59.578Z,5.22
2022-07-26T20:08:26.602Z,3.90
2022-07-26T20:10:53.684Z,3.85
2022-07-26T20:13:21.259Z,2.80
2022-07-26T20:15:48.263Z,3.75
2022-07-26T20:18:15.373Z,2.92
2022-07-26T20:20:42.952Z,2.65
2022-07-26T20:23:10.304Z,2.72
2022-07-26T20:25:37.403Z,3.10
2022-07-26T20:28:04.966Z,2.67
2022-07-26T20:30:32.088Z,2.88
2022-07-26T20:32:59.107Z,2.83
2022-07-26T20:35:26.759Z,2.67
2022-07-26T20:37:53.740Z,2.65
2022-07-26T20:40:21.078Z,2.90
2022-07-26T20:42:51.007Z,2.88
2022-07-26T20:45:18.031Z,2.90
2022-07-26T20:47:45.110Z,2.63
2022-07-26T20:50:12.685Z,2.55
2022-07-26T20:52:40.292Z,2.63
2022-07-26T20:55:08.073Z,3.20
2022-07-26T20:57:35.967Z,2.80
2022-07-26T21:00:05.506Z,4.22
2022-07-26T21:02:32.578Z,3.38
2022-07-26T21:05:00.070Z,3.20
2022-07-26T21:07:58.344Z,3.50
2022-07-26T21:10:15.074Z,2.88
2022-07-26T21:12:42.277Z,4.43
2022-07-26T21:15:09.826Z,3.00
2022-07-26T21:17:37.499Z,4.50
2022-07-26T21:20:05.705Z,4.50
2022-07-26T21:22:33.029Z,2.85
2022-07-26T21:25:00.517Z,3.03
2022-07-26T21:27:27.588Z,2.78
2022-07-26T21:29:54.629Z,3.05
2022-07-26T21:32:22.065Z,2.95
2022-07-26T21:34:49.243Z,2.60
2022-07-26T21:37:16.467Z,3.03
2022-07-26T21:39:43.955Z,2.88
2022-07-26T21:42:11.077Z,3.38
2022-07-26T21:44:38.107Z,2.47
2022-07-26T21:47:05.833Z,3.10
2022-07-26T21:49:33.506Z,2.85
2022-07-26T21:52:00.704Z,2.80
2022-07-26T21:54:28.272Z,5.85
2022-07-26T21:56:55.273Z,2.65
2022-07-26T21:59:22.277Z,2.53
2022-07-26T22:01:49.842Z,2.55
2022-07-26T22:04:16.884Z,2.53
2022-07-26T22:06:44.273Z,2.67
2022-07-26T22:09:12.530Z,2.25
2022-07-26T22:11:39.829Z,2.40
2022-07-26T22:14:06.893Z,2.40
2022-07-26T22:16:35.203Z,2.58
2022-07-26T22:19:02.629Z,2.63
2022-07-26T22:21:29.762Z,2.70
2022-07-26T22:23:57.257Z,2.55
2022-07-26T22:26:24.298Z,2.95
2022-07-26T22:28:51.304Z,2.30
2022-07-26T22:31:18.924Z,2.70
2022-07-26T22:33:46.033Z,2.47
2022-07-26T22:36:13.023Z,2.75
2022-07-26T22:38:40.456Z,2.50
2022-07-26T22:41:07.604Z,2.30
2022-07-26T22:43:34.588Z,2.50
2022-07-26T22:46:02.354Z,2.50
2022-07-26T22:48:29.943Z,2.60
2022-07-26T22:50:57.022Z,2.60
2022-07-26T22:53:24.553Z,2.60
2022-07-26T22:55:51.548Z,2.38
2022-07-26T22:58:18.937Z,2.63
2022-07-26T23:00:46.463Z,2.40
2022-07-26T23:03:20.100Z,2.97
2022-07-26T23:05:49.989Z,2.40
2022-07-26T23:08:45.116Z,2.85
2022-07-26T23:11:06.524Z,2.40
2022-07-26T23:13:33.796Z,2.25
2022-07-26T23:16:02.046Z,2.17
2022-07-26T23:18:33.359Z,2.30
2022-07-26T23:21:00.698Z,2.58
2022-07-26T23:23:29.177Z,2.75
2022-07-26T23:25:58.805Z,2.45
2022-07-26T23:28:36.530Z,2.75
2022-07-26T23:31:11.148Z,2.47
2022-07-26T23:36:25.375Z,2.72
2022-07-26T23:38:52.645Z,2.85
2022-07-26T23:41:19.702Z,2.42
2022-07-26T23:43:47.403Z,2.70
2022-07-26T23:46:14.698Z,2.60
2022-07-26T23:48:41.832Z,3.00
2022-07-26T23:51:09.288Z,2.60
2022-07-26T23:53:36.750Z,2.33
2022-07-26T23:56:03.885Z,2.30
2022-07-26T23:58:31.291Z,2.67
